Time;durP1;ratioP1;P1;durP2;ratioP2;P2;SDS_P1;SDS_P2;PMS_P1;PMS_P2;Temp;Humidity;BMP_temperature;BMP_pressure;BME280_temperature;BME280_humidity;BME280_pressure;Samples;Min_cycle;Max_cycle;Signal;HPM_P1;HPM_P2
2023/07/01 00:00:08;;;;;;;1.40;1.30;;;17.50;98.20;;;;;;5092227;28;20628;-71
2023/07/01 00:02:36;;;;;;;1.37;0.93;;;17.50;98.40;;;;;;5095655;28;20733;-71
2023/07/01 00:05:06;;;;;;;1.53;1.43;;;17.40;98.70;;;;;;5094149;28;21196;-70
2023/07/01 00:07:34;;;;;;;1.70;0.90;;;17.40;99.00;;;;;;5096468;28;20636;-70
2023/07/01 00:10:01;;;;;;;1.20;1.10;;;17.30;98.70;;;;;;5090089;28;20674;-70
2023/07/01 00:12:28;;;;;;;0.90;0.73;;;17.20;98.70;;;;;;5091963;28;20669;-70
2023/07/01 00:14:56;;;;;;;1.33;1.23;;;17.10;99.00;;;;;;5090800;28;20625;-70
2023/07/01 00:17:23;;;;;;;1.50;1.40;;;17.10;99.30;;;;;;5091200;28;20656;-70
2023/07/01 00:19:50;;;;;;;1.23;1.20;;;17.00;99.30;;;;;;5099650;28;20619;-71
2023/07/01 00:22:17;;;;;;;0.83;0.80;;;17.00;99.60;;;;;;5094556;28;20755;-70
2023/07/01 00:24:43;;;;;;;2.20;1.63;;;16.90;99.90;;;;;;5091652;28;20909;-70
2023/07/01 00:27:10;;;;;;;0.97;0.97;;;16.90;99.90;;;;;;5098389;28;21201;-71
2023/07/01 00:29:37;;;;;;;1.53;1.20;;;16.70;99.90;;;;;;5091247;28;20983;-70
2023/07/01 00:32:07;;;;;;;1.47;1.27;;;16.70;99.90;;;;;;5090003;28;20663;-71
2023/07/01 00:34:33;;;;;;;1.17;1.07;;;16.60;99.90;;;;;;5089760;28;20632;-70
2023/07/01 00:37:00;;;;;;;1.57;1.47;;;16.60;99.90;;;;;;5095272;28;21443;-70
2023/07/01 00:39:27;;;;;;;1.30;1.20;;;16.60;99.90;;;;;;5097083;28;20621;-71
2023/07/01 00:41:54;;;;;;;1.10;1.00;;;16.50;99.90;;;;;;5089937;28;20751;-71
2023/07/01 00:44:21;;;;;;;1.53;1.43;;;16.50;99.90;;;;;;5093618;28;20652;-71
2023/07/01 00:46:48;;;;;;;1.10;1.10;;;16.40;99.90;;;;;;5096725;28;20647;-71
2023/07/01 00:49:16;;;;;;;1.67;1.57;;;16.40;99.90;;;;;;5080501;28;20764;-71
2023/07/01 00:51:43;;;;;;;1.20;1.13;;;16.30;99.90;;;;;;5091271;28;21228;-71
2023/07/01 00:54:10;;;;;;;1.10;1.00;;;16.30;99.90;;;;;;5094992;28;20969;-71
2023/07/01 00:56:37;;;;;;;1.30;1.17;;;16.40;99.90;;;;;;5096584;28;20636;-70
2023/07/01 00:59:03;;;;;;;1.80;1.23;;;16.30;99.90;;;;;;5088882;28;20629;-70
2023/07/01 01:01:35;;;;;;;1.20;1.10;;;16.30;99.90;;;;;;5095854;28;20970;-71
2023/07/01 01:04:09;;;;;;;2.40;1.60;;;16.20;99.90;;;;;;5090191;28;20659;-71
2023/07/01 01:06:43;;;;;;;1.50;1.40;;;16.20;99.90;;;;;;5093638;28;20648;-71
2023/07/01 01:09:16;;;;;;;1.73;1.60;;;16.00;99.90;;;;;;5092925;28;20660;-71
2023/07/01 01:11:47;;;;;;;0.83;0.83;;;16.00;99.90;;;;;;5089924;28;20641;-71
2023/07/01 01:14:17;;;;;;;1.40;1.30;;;16.00;99.90;;;;;;5088417;28;21000;-71
2023/07/01 01:16:46;;;;;;;1.23;1.10;;;16.00;99.90;;;;;;5088114;28;20655;-71
2023/07/01 01:19:22;;;;;;;1.20;1.10;;;15.90;99.90;;;;;;5089226;28;20641;-71
2023/07/01 01:22:03;;;;;;;1.50;1.40;;;15.80;99.90;;;;;;5082833;28;20739;-71
2023/07/01 01:24:34;;;;;;;1.27;1.17;;;15.80;99.90;;;;;;5092678;28;20721;-71
2023/07/01 01:27:05;;;;;;;2.53;1.57;;;15.80;99.90;;;;;;5097650;28;21236;-71
2023/07/01 01:29:33;;;;;;;1.30;1.20;;;15.90;99.90;;;;;;5091078;28;20631;-71
2023/07/01 01:32:00;;;;;;;1.20;1.10;;;15.90;99.90;;;;;;5084948;28;21067;-71
2023/07/01 01:34:27;;;;;;;1.53;1.33;;;15.90;99.90;;;;;;5096653;28;20631;-71
2023/07/01 01:36:57;;;;;;;1.30;1.20;;;15.80;99.90;;;;;;5093240;28;20690;-71
2023/07/01 01:39:31;;;;;;;1.60;1.50;;;15.90;99.90;;;;;;5090966;28;20657;-71
2023/07/01 01:42:03;;;;;;;1.43;1.33;;;15.90;99.90;;;;;;5091964;28;20643;-71
2023/07/01 01:44:44;;;;;;;1.07;1.07;;;15.80;99.90;;;;;;5092009;28;20659;-71
2023/07/01 01:47:14;;;;;;;1.77;1.67;;;15.80;99.90;;;;;;5094831;28;20636;-71
2023/07/01 01:49:43;;;;;;;1.60;1.50;;;15.80;99.90;;;;;;5096511;28;20625;-71
2023/07/01 01:52:14;;;;;;;1.03;1.03;;;15.80;99.90;;;;;;5091991;28;20648;-71
2023/07/01 01:54:45;;;;;;;1.20;1.10;;;15.70;99.90;;;;;;5091609;28;20619;-71
2023/07/01 01:57:14;;;;;;;1.47;1.37;;;15.70;99.90;;;;;;5099912;28;21244;-71
2023/07/01 01:59:45;;;;;;;1.77;1.50;;;15.60;99.90;;;;;;5090905;28;20629;-71
2023/07/01 02:02:13;;;;;;;2.00;1.80;;;15.60;99.90;;;;;;5091867;28;20643;-71
2023/07/01 02:04:40;;;;;;;1.30;1.20;;;15.60;99.90;;;;;;5098572;28;20640;-71
2023/07/01 02:07:07;;;;;;;1.50;1.40;;;15.50;99.90;;;;;;5105062;28;21253;-71
2023/07/01 02:09:34;;;;;;;1.63;1.40;;;15.40;99.90;;;;;;5090901;28;20973;-70
2023/07/01 02:12:01;;;;;;;1.43;1.33;;;15.40;99.90;;;;;;5091008;28;20644;-71
2023/07/01 02:14:28;;;;;;;1.60;1.37;;;15.40;99.90;;;;;;5090329;28;20989;-70
2023/07/01 02:16:56;;;;;;;0.90;0.90;;;15.40;99.90;;;;;;5098327;28;21287;-70
2023/07/01 02:19:23;;;;;;;1.43;1.33;;;15.40;99.90;;;;;;5092815;28;20632;-70
2023/07/01 02:21:50;;;;;;;2.70;1.40;;;15.30;99.90;;;;;;5090524;28;20653;-70
2023/07/01 02:24:17;;;;;;;1.30;1.20;;;15.30;99.90;;;;;;5097748;28;21217;-72
2023/07/01 02:26:45;;;;;;;1.60;1.40;;;15.20;99.90;;;;;;5101432;28;20667;-70
2023/07/01 02:29:13;;;;;;;1.50;1.30;;;15.20;99.90;;;;;;5091117;28;20617;-70
2023/07/01 02:31:41;;;;;;;2.00;1.90;;;15.10;99.90;;;;;;5092237;28;20648;-72
2023/07/01 02:34:10;;;;;;;1.70;1.60;;;15.00;99.90;;;;;;5092554;28;20631;-72
2023/07/01 02:36:40;;;;;;;2.77;1.73;;;14.90;99.90;;;;;;5091107;28;20645;-71
2023/07/01 02:39:09;;;;;;;1.40;1.30;;;15.00;99.90;;;;;;5090524;28;20964;-70
2023/07/01 02:41:36;;;;;;;1.73;1.30;;;14.90;99.90;;;;;;5090547;28;20636;-70
2023/07/01 02:44:03;;;;;;;1.30;1.20;;;14.80;99.90;;;;;;5091122;28;21006;-70
2023/07/01 02:46:31;;;;;;;2.80;1.40;;;14.80;99.90;;;;;;5091247;28;20656;-70
2023/07/01 02:48:59;;;;;;;2.83;1.50;;;14.80;99.90;;;;;;5090361;28;20636;-70
2023/07/01 02:51:28;;;;;;;2.60;1.40;;;14.90;99.90;;;;;;5097195;28;20649;-70
2023/07/01 02:53:57;;;;;;;1.93;1.47;;;14.90;99.90;;;;;;5075524;28;20612;-70
2023/07/01 02:56:24;;;;;;;1.23;1.13;;;14.80;99.90;;;;;;5090572;28;20645;-70
2023/07/01 02:58:52;;;;;;;2.03;1.80;;;14.80;99.90;;;;;;5090933;28;21203;-70
2023/07/01 03:01:19;;;;;;;1.33;1.20;;;14.70;99.90;;;;;;5094641;28;20751;-70
2023/07/01 03:03:49;;;;;;;2.87;1.23;;;14.70;99.90;;;;;;5090952;28;21009;-71
2023/07/01 03:06:17;;;;;;;1.27;1.20;;;14.70;99.90;;;;;;5091526;28;20637;-70
2023/07/01 03:08:46;;;;;;;3.17;2.53;;;14.60;99.90;;;;;;5094019;28;20632;-70
2023/07/01 03:11:13;;;;;;;3.23;1.60;;;14.60;99.90;;;;;;5097706;28;21272;-70
2023/07/01 03:13:42;;;;;;;1.93;1.30;;;14.60;99.90;;;;;;5093488;28;20627;-73
2023/07/01 03:16:10;;;;;;;1.60;1.33;;;14.60;99.90;;;;;;5090641;28;20703;-71
2023/07/01 03:18:37;;;;;;;1.60;1.50;;;14.70;99.90;;;;;;5097492;28;21207;-71
2023/07/01 03:21:04;;;;;;;1.23;1.10;;;14.70;99.90;;;;;;5091354;28;20699;-71
2023/07/01 03:23:31;;;;;;;3.57;1.87;;;14.70;99.90;;;;;;5095436;28;20989;-71
2023/07/01 03:26:00;;;;;;;1.40;1.30;;;14.80;99.90;;;;;;5099578;28;20976;-71
2023/07/01 03:28:27;;;;;;;1.83;1.73;;;14.80;99.90;;;;;;5094852;28;20617;-71
2023/07/01 03:30:54;;;;;;;1.70;1.40;;;14.80;99.90;;;;;;5089974;28;20632;-71
2023/07/01 03:33:21;;;;;;;2.73;1.53;;;14.80;99.90;;;;;;5092988;28;20652;-71
2023/07/01 03:35:47;;;;;;;1.40;1.30;;;14.70;99.90;;;;;;5095313;28;20739;-71
2023/07/01 03:38:14;;;;;;;2.03;1.83;;;14.70;99.90;;;;;;5094282;28;20628;-71
2023/07/01 03:40:41;;;;;;;2.20;1.50;;;14.70;99.90;;;;;;5097226;28;20643;-71
2023/07/01 03:43:09;;;;;;;1.50;1.40;;;14.70;99.90;;;;;;5086087;28;21029;-70
2023/07/01 03:45:36;;;;;;;2.83;1.20;;;14.80;99.90;;;;;;5096269;28;20666;-71
2023/07/01 03:48:03;;;;;;;1.30;1.17;;;14.90;99.90;;;;;;5094544;28;20908;-71
2023/07/01 03:50:30;;;;;;;1.47;1.37;;;14.90;99.90;;;;;;5092965;28;20644;-71
2023/07/01 03:52:57;;;;;;;2.57;2.37;;;15.00;99.90;;;;;;5102118;28;20627;-71
2023/07/01 03:55:23;;;;;;;1.43;1.33;;;15.00;99.90;;;;;;5094161;28;20641;-70
2023/07/01 03:57:50;;;;;;;1.30;1.20;;;15.00;99.90;;;;;;5094053;28;20699;-70
2023/07/01 04:00:19;;;;;;;1.80;1.70;;;14.80;99.90;;;;;;5094580;28;20612;-70
2023/07/01 04:02:46;;;;;;;1.77;1.67;;;14.80;99.90;;;;;;5094452;28;20625;-71
2023/07/01 04:05:13;;;;;;;1.50;1.40;;;14.90;99.90;;;;;;5098871;28;20645;-69
2023/07/01 04:07:40;;;;;;;2.40;1.40;;;15.00;99.90;;;;;;5099662;28;20654;-71
2023/07/01 04:10:08;;;;;;;2.47;1.70;;;15.00;99.90;;;;;;5093174;28;20624;-71
2023/07/01 04:12:36;;;;;;;2.00;1.07;;;15.00;99.90;;;;;;5097136;28;20649;-71
2023/07/01 04:15:09;;;;;;;7.30;1.57;;;15.10;99.90;;;;;;5097049;28;20684;-71
2023/07/01 04:17:39;;;;;;;1.80;1.60;;;15.10;99.90;;;;;;5094215;28;20629;-72
2023/07/01 04:20:07;;;;;;;3.37;1.70;;;15.20;99.90;;;;;;5100319;28;20984;-71
2023/07/01 04:22:34;;;;;;;1.53;1.43;;;15.20;99.90;;;;;;5100835;28;20727;-71
2023/07/01 04:25:00;;;;;;;1.50;1.30;;;15.20;99.90;;;;;;5093463;28;20664;-71
2023/07/01 04:27:27;;;;;;;1.60;1.50;;;15.20;99.90;;;;;;5093485;28;20640;-71
2023/07/01 04:29:54;;;;;;;1.53;1.43;;;15.40;99.90;;;;;;5092298;28;20617;-71
2023/07/01 04:32:21;;;;;;;1.20;1.10;;;15.40;99.90;;;;;;5098772;28;20644;-71
2023/07/01 04:34:49;;;;;;;1.53;1.43;;;15.50;99.90;;;;;;5093670;28;20631;-71
2023/07/01 04:37:16;;;;;;;2.20;1.63;;;15.50;99.90;;;;;;5098288;28;20640;-71
2023/07/01 04:39:43;;;;;;;1.37;1.27;;;15.50;99.90;;;;;;5092400;28;20709;-71
2023/07/01 04:42:09;;;;;;;1.70;1.60;;;15.60;99.90;;;;;;5093843;28;20648;-71
2023/07/01 04:44:36;;;;;;;1.67;1.57;;;15.70;99.90;;;;;;5096404;28;20753;-71
2023/07/01 04:47:04;;;;;;;2.10;1.90;;;15.60;99.90;;;;;;5092817;28;20817;-71
2023/07/01 04:49:30;;;;;;;1.43;1.33;;;15.60;99.90;;;;;;5099448;28;20628;-71
2023/07/01 04:51:58;;;;;;;2.30;1.50;;;15.70;99.90;;;;;;5095566;28;20739;-71
2023/07/01 04:54:25;;;;;;;1.73;1.60;;;15.70;99.90;;;;;;5083287;28;20724;-72
2023/07/01 04:56:52;;;;;;;2.13;1.80;;;15.80;99.90;;;;;;5088402;28;21228;-71
2023/07/01 04:59:19;;;;;;;1.43;1.33;;;15.80;99.90;;;;;;5086587;28;21188;-71
2023/07/01 05:01:46;;;;;;;2.80;2.60;;;15.90;99.90;;;;;;5096025;28;20726;-71
2023/07/01 05:04:13;;;;;;;1.47;1.37;;;15.90;99.90;;;;;;5094781;28;20641;-71
2023/07/01 05:06:40;;;;;;;1.70;1.60;;;16.00;99.90;;;;;;5095232;28;20636;-71
2023/07/01 05:09:08;;;;;;;1.93;1.43;;;16.00;99.90;;;;;;5095718;28;20631;-71
2023/07/01 05:11:35;;;;;;;1.50;1.40;;;16.00;99.90;;;;;;5092597;28;20648;-71
2023/07/01 05:14:02;;;;;;;1.13;1.00;;;16.00;99.90;;;;;;5095287;28;20613;-71
2023/07/01 05:16:28;;;;;;;1.07;1.03;;;16.10;99.90;;;;;;5098424;28;20694;-71
2023/07/01 05:18:56;;;;;;;1.93;1.57;;;16.20;99.90;;;;;;5095146;28;20621;-71
2023/07/01 05:21:23;;;;;;;2.23;1.63;;;16.30;99.90;;;;;;5092465;28;20645;-71
2023/07/01 05:23:50;;;;;;;2.77;1.90;;;16.40;99.90;;;;;;5091660;28;20629;-71
2023/07/01 05:26:18;;;;;;;2.17;1.97;;;16.40;99.90;;;;;;5096175;28;21293;-71
2023/07/01 05:28:45;;;;;;;1.90;1.80;;;16.40;99.90;;;;;;5091446;28;21050;-71
2023/07/01 05:31:12;;;;;;;2.53;2.33;;;16.50;99.90;;;;;;5095040;28;21004;-71
2023/07/01 05:33:39;;;;;;;1.80;1.70;;;16.60;99.90;;;;;;5100505;28;21176;-71
2023/07/01 05:36:06;;;;;;;2.00;1.60;;;16.60;99.80;;;;;;5095386;28;20649;-71
2023/07/01 05:38:33;;;;;;;1.83;1.67;;;16.70;99.90;;;;;;5096086;28;20670;-71
2023/07/01 05:41:00;;;;;;;1.70;1.60;;;16.80;99.70;;;;;;5090879;28;20658;-73
2023/07/01 05:43:28;;;;;;;1.37;1.27;;;16.80;99.30;;;;;;5092167;28;20628;-72
2023/07/01 05:45:55;;;;;;;1.60;1.50;;;17.00;99.10;;;;;;5091824;28;20664;-72
2023/07/01 05:48:21;;;;;;;2.53;2.33;;;17.00;99.10;;;;;;5095057;28;20631;-71
2023/07/01 05:50:48;;;;;;;1.57;1.40;;;17.10;98.70;;;;;;5093931;28;21074;-72
2023/07/01 05:53:15;;;;;;;2.07;1.33;;;17.10;98.40;;;;;;5090169;28;20617;-72
2023/07/01 05:55:42;;;;;;;1.60;1.50;;;17.20;97.50;;;;;;5095717;28;20647;-72
2023/07/01 05:58:09;;;;;;;1.70;1.60;;;17.30;97.90;;;;;;5091904;28;21049;-72
2023/07/01 06:00:37;;;;;;;2.50;2.00;;;17.30;97.30;;;;;;5090668;28;21233;-72
2023/07/01 06:03:03;;;;;;;2.00;1.73;;;17.30;97.40;;;;;;5095154;28;20720;-72
2023/07/01 06:05:30;;;;;;;1.63;1.53;;;17.30;97.10;;;;;;5093425;28;21217;-71
2023/07/01 06:07:57;;;;;;;1.50;1.40;;;17.50;96.60;;;;;;5093426;28;21177;-72
2023/07/01 06:10:24;;;;;;;1.40;1.20;;;17.50;96.70;;;;;;5090498;28;20652;-72
2023/07/01 06:12:50;;;;;;;1.40;1.30;;;17.50;97.00;;;;;;5091354;28;20616;-70
2023/07/01 06:15:17;;;;;;;1.40;1.30;;;17.50;96.50;;;;;;5090961;28;20621;-71
2023/07/01 06:17:45;;;;;;;1.30;1.20;;;17.60;96.90;;;;;;5096296;28;20617;-71
2023/07/01 06:20:12;;;;;;;1.70;1.53;;;17.80;96.50;;;;;;5093619;28;20631;-71
2023/07/01 06:22:40;;;;;;;2.03;1.80;;;17.70;95.00;;;;;;5091958;28;20732;-71
2023/07/01 06:25:10;;;;;;;1.37;1.27;;;17.80;95.50;;;;;;5090819;28;21031;-71
2023/07/01 06:27:38;;;;;;;1.63;1.53;;;17.90;95.60;;;;;;5091714;28;20723;-71
2023/07/01 06:30:06;;;;;;;1.53;1.33;;;17.90;95.40;;;;;;5090254;28;20620;-72
2023/07/01 06:32:32;;;;;;;1.20;1.20;;;18.00;95.40;;;;;;5094161;28;20632;-71
2023/07/01 06:35:00;;;;;;;1.77;1.67;;;18.10;94.50;;;;;;5097168;28;20616;-71
2023/07/01 06:37:27;;;;;;;1.30;1.30;;;18.10;94.00;;;;;;5094337;28;21030;-71
2023/07/01 06:39:54;;;;;;;2.17;1.80;;;18.10;94.10;;;;;;5091000;28;20976;-71
2023/07/01 06:42:21;;;;;;;1.50;1.40;;;18.20;94.10;;;;;;5091100;28;20997;-71
2023/07/01 06:44:47;;;;;;;2.23;1.40;;;18.20;94.10;;;;;;5090597;28;20655;-72
2023/07/01 06:47:14;;;;;;;1.70;1.17;;;18.40;93.90;;;;;;5089701;28;20647;-71
2023/07/01 06:49:41;;;;;;;1.50;1.40;;;18.40;93.70;;;;;;5090130;28;20639;-71
2023/07/01 06:52:09;;;;;;;1.30;1.20;;;18.50;93.10;;;;;;5089061;28;21224;-71
2023/07/01 06:54:36;;;;;;;1.67;1.57;;;18.40;92.10;;;;;;5090706;28;20613;-71
2023/07/01 06:57:03;;;;;;;1.30;1.20;;;18.60;92.00;;;;;;5090618;28;20651;-71
2023/07/01 06:59:30;;;;;;;2.23;2.13;;;18.60;91.80;;;;;;5090196;28;20769;-72
2023/07/01 07:01:57;;;;;;;1.37;1.27;;;18.60;91.40;;;;;;5089655;28;20998;-71
2023/07/01 07:04:23;;;;;;;2.03;1.57;;;18.70;91.60;;;;;;5092001;28;20771;-71
2023/07/01 07:10:26;;;;;;;1.60;1.50;;;18.90;92.20;;;;;;5094358;28;20748;-71
2023/07/01 07:12:52;;;;;;;3.77;1.27;;;18.90;91.40;;;;;;5094015;28;20616;-71
2023/07/01 07:15:19;;;;;;;1.67;1.57;;;19.00;91.20;;;;;;5094761;28;20624;-71
2023/07/01 07:17:46;;;;;;;1.60;1.50;;;19.00;91.60;;;;;;5094754;28;20996;-71
2023/07/01 07:20:14;;;;;;;1.23;1.13;;;19.10;90.50;;;;;;5095388;28;20632;-72
2023/07/01 07:22:40;;;;;;;1.60;1.50;;;19.30;87.70;;;;;;5094371;28;20636;-71
2023/07/01 07:25:15;;;;;;;1.30;1.20;;;19.30;88.10;;;;;;5093831;28;20661;-71
2023/07/01 07:27:42;;;;;;;1.95;1.60;;;19.60;86.40;;;;;;5092048;28;20703;-71
2023/07/01 07:30:10;;;;;;;2.30;1.73;;;19.50;86.50;;;;;;5092863;28;20959;-71
2023/07/01 07:32:39;;;;;;;1.10;1.10;;;19.60;85.90;;;;;;5095747;28;20727;-71
2023/07/01 07:35:09;;;;;;;1.97;1.87;;;19.70;84.60;;;;;;5093802;28;20621;-71
2023/07/01 07:37:36;;;;;;;1.00;1.00;;;19.90;87.20;;;;;;5097437;28;20627;-71
2023/07/01 07:40:05;;;;;;;2.43;1.60;;;20.20;87.50;;;;;;5093156;28;20629;-71
2023/07/01 07:42:33;;;;;;;2.70;1.50;;;20.30;86.30;;;;;;5093954;28;20647;-71
2023/07/01 07:45:00;;;;;;;2.50;1.53;;;20.50;85.50;;;;;;5094671;28;20647;-71
2023/07/01 07:47:27;;;;;;;2.00;1.57;;;20.70;83.40;;;;;;5093615;28;21201;-71
2023/07/01 07:49:54;;;;;;;2.30;2.10;;;20.80;83.10;;;;;;5099146;28;20652;-71
2023/07/01 07:52:21;;;;;;;4.40;1.63;;;20.70;84.50;;;;;;5101953;28;20646;-71
2023/07/01 07:54:48;;;;;;;2.50;1.60;;;20.80;83.60;;;;;;5102336;28;20627;-71
2023/07/01 07:57:14;;;;;;;2.00;1.90;;;20.90;81.50;;;;;;5096322;28;20644;-71
2023/07/01 07:59:43;;;;;;;2.17;1.97;;;20.90;83.50;;;;;;5083168;28;20632;-71
2023/07/01 08:02:10;;;;;;;2.43;1.77;;;21.00;82.50;;;;;;5099058;28;20644;-71
2023/07/01 08:04:37;;;;;;;1.33;1.23;;;21.30;82.80;;;;;;5094538;28;20623;-71
2023/07/01 08:07:04;;;;;;;2.60;2.17;;;21.60;81.10;;;;;;5099701;28;20659;-71
2023/07/01 08:09:31;;;;;;;1.87;1.77;;;21.70;80.90;;;;;;5094556;28;20620;-71
2023/07/01 08:11:58;;;;;;;1.70;1.30;;;21.40;81.20;;;;;;5093679;28;20655;-71
2023/07/01 08:14:25;;;;;;;1.95;1.85;;;21.20;80.10;;;;;;5092419;28;20840;-71
2023/07/01 08:16:54;;;;;;;1.60;1.50;;;21.20;83.00;;;;;;5101847;28;20231;-71
2023/07/01 08:19:21;;;;;;;2.13;1.97;;;21.40;83.60;;;;;;5091932;28;20632;-71
2023/07/01 08:21:48;;;;;;;1.70;1.60;;;21.50;82.50;;;;;;5093183;28;20637;-71
2023/07/01 08:24:15;;;;;;;1.50;1.40;;;21.70;82.20;;;;;;5092830;28;20664;-72
2023/07/01 08:26:42;;;;;;;1.50;1.40;;;21.80;82.00;;;;;;5094190;28;20675;-72
2023/07/01 08:29:10;;;;;;;1.90;1.80;;;21.70;81.00;;;;;;5092005;28;20628;-72
2023/07/01 08:31:37;;;;;;;1.73;1.63;;;21.80;77.90;;;;;;5090027;28;20655;-72
2023/07/01 08:34:05;;;;;;;1.23;1.20;;;21.60;81.90;;;;;;5095787;28;20630;-72
2023/07/01 08:36:32;;;;;;;2.00;1.80;;;21.60;82.20;;;;;;5094254;28;20727;-72
2023/07/01 08:39:01;;;;;;;2.40;2.20;;;21.60;79.70;;;;;;5091386;28;20629;-71
2023/07/01 08:41:32;;;;;;;2.10;1.70;;;21.50;77.80;;;;;;5096373;28;20752;-72
2023/07/01 08:44:01;;;;;;;2.10;1.97;;;21.60;81.70;;;;;;5098187;28;20623;-72
2023/07/01 08:46:28;;;;;;;1.70;1.60;;;22.00;79.00;;;;;;5091992;28;20659;-72
2023/07/01 08:48:56;;;;;;;1.87;1.60;;;21.90;77.80;;;;;;5092554;28;20628;-72
2023/07/01 08:51:27;;;;;;;1.50;1.40;;;21.90;78.20;;;;;;5092370;28;20646;-72
2023/07/01 08:53:54;;;;;;;1.77;1.67;;;22.10;79.00;;;;;;5100074;28;20626;-72
2023/07/01 08:56:22;;;;;;;1.67;1.57;;;22.20;75.50;;;;;;5096653;28;20649;-72
2023/07/01 08:58:49;;;;;;;2.13;2.03;;;22.40;76.60;;;;;;5084120;28;20967;-72
2023/07/01 09:01:17;;;;;;;1.47;1.30;;;22.60;73.60;;;;;;5099215;28;20650;-72
2023/07/01 09:03:46;;;;;;;1.70;1.60;;;22.50;72.60;;;;;;5090654;28;20615;-72
2023/07/01 09:06:13;;;;;;;1.80;1.70;;;22.60;73.30;;;;;;5098186;28;20663;-71
2023/07/01 09:08:41;;;;;;;1.90;1.80;;;22.60;71.10;;;;;;5095831;28;20630;-72
2023/07/01 09:11:12;;;;;;;1.30;1.20;;;22.60;69.20;;;;;;5099570;28;20698;-72
2023/07/01 09:13:39;;;;;;;1.40;1.30;;;22.60;66.90;;;;;;5084613;28;20626;-72
2023/07/01 09:16:06;;;;;;;1.37;1.10;;;22.40;68.00;;;;;;5094820;28;20650;-73
2023/07/01 09:18:33;;;;;;;2.33;1.60;;;22.30;67.40;;;;;;5091241;28;20736;-72
2023/07/01 09:21:00;;;;;;;2.80;1.20;;;22.30;66.70;;;;;;5092757;28;20691;-74
2023/07/01 09:23:29;;;;;;;1.20;1.20;;;22.40;68.00;;;;;;5094590;28;20621;-76
2023/07/01 09:26:14;;;;;;;0.83;0.83;;;22.70;68.90;;;;;;5098504;28;20667;-77
2023/07/01 09:28:42;;;;;;;1.00;1.00;;;22.80;65.60;;;;;;5091046;28;20623;-75
2023/07/01 09:31:10;;;;;;;1.27;1.17;;;23.00;66.40;;;;;;5096131;28;20657;-77
2023/07/01 09:33:38;;;;;;;1.50;1.40;;;23.30;65.10;;;;;;5094217;28;20625;-73
2023/07/01 09:36:07;;;;;;;1.23;1.13;;;23.50;65.20;;;;;;5091772;28;20661;-75
2023/07/01 09:38:34;;;;;;;1.27;1.10;;;23.80;64.90;;;;;;5095950;28;20622;-75
2023/07/01 09:41:14;;;;;;;1.40;1.30;;;23.40;61.70;;;;;;5090910;28;20646;-73
2023/07/01 09:43:41;;;;;;;1.97;1.77;;;23.70;64.80;;;;;;5101414;28;20961;-74
2023/07/01 09:46:08;;;;;;;2.10;1.90;;;23.90;62.50;;;;;;5093290;28;20663;-73
2023/07/01 09:48:36;;;;;;;1.20;1.20;;;23.90;60.50;;;;;;5091909;28;20626;-75
2023/07/01 09:51:04;;;;;;;1.10;1.10;;;23.90;58.20;;;;;;5091422;28;20661;-72
2023/07/01 09:53:32;;;;;;;1.37;1.30;;;23.60;59.10;;;;;;5103598;28;20624;-72
2023/07/01 09:56:00;;;;;;;1.50;1.40;;;23.60;57.60;;;;;;5090720;28;20668;-72
2023/07/01 09:58:29;;;;;;;1.07;0.83;;;23.50;56.90;;;;;;5086582;28;20628;-72
2023/07/01 10:00:57;;;;;;;3.83;1.50;;;23.10;56.30;;;;;;5086734;28;20650;-73
2023/07/01 10:03:25;;;;;;;0.93;0.87;;;22.80;57.20;;;;;;5088281;28;20988;-72
2023/07/01 10:05:52;;;;;;;1.23;1.13;;;22.60;57.00;;;;;;5096136;28;20705;-72
2023/07/01 10:08:19;;;;;;;1.60;1.27;;;22.70;58.00;;;;;;5095062;28;21245;-72
2023/07/01 10:10:57;;;;;;;1.10;1.00;;;22.70;57.50;;;;;;5091906;28;20654;-72
2023/07/01 10:13:25;;;;;;;3.60;2.13;;;22.60;58.00;;;;;;5093092;28;20991;-72
2023/07/01 10:15:53;;;;;;;1.50;1.40;;;22.80;58.80;;;;;;5094809;28;20642;-72
2023/07/01 10:18:21;;;;;;;1.40;1.20;;;22.90;56.20;;;;;;5090886;28;20637;-72
2023/07/01 10:20:49;;;;;;;1.50;1.40;;;22.90;57.20;;;;;;5089034;28;20640;-72
2023/07/01 10:23:16;;;;;;;1.53;1.33;;;23.30;58.60;;;;;;5090086;28;20635;-72
2023/07/01 10:25:43;;;;;;;1.50;1.40;;;23.70;58.20;;;;;;5090189;28;20999;-72
2023/07/01 10:28:11;;;;;;;3.80;1.10;;;23.50;55.80;;;;;;5091110;28;20666;-72
2023/07/01 10:31:14;;;;;;;1.37;1.27;;;23.70;57.50;;;;;;5089612;28;21063;-73
2023/07/01 10:33:57;;;;;;;1.33;1.23;;;24.10;56.80;;;;;;5090819;28;20616;-72
2023/07/01 10:36:24;;;;;;;2.70;1.13;;;24.40;56.40;;;;;;5090592;28;20652;-72
2023/07/01 10:38:51;;;;;;;1.20;1.10;;;24.60;56.80;;;;;;5088932;28;21222;-72
2023/07/01 10:41:52;;;;;;;3.70;1.67;;;24.60;56.40;;;;;;5089192;28;20640;-72
2023/07/01 10:44:23;;;;;;;1.63;1.10;;;25.20;56.20;;;;;;5047522;28;20621;-72
2023/07/01 10:47:18;;;;;;;1.60;1.30;;;25.40;55.50;;;;;;5046660;28;21275;-72
2023/07/01 10:50:04;;;;;;;2.30;1.80;;;25.30;53.70;;;;;;5075696;28;20635;-72
2023/07/01 10:52:32;;;;;;;1.50;1.30;;;25.40;53.80;;;;;;5089218;28;20721;-72
2023/07/01 10:55:00;;;;;;;2.10;1.90;;;25.40;53.30;;;;;;5089604;28;20631;-72
2023/07/01 10:57:28;;;;;;;1.93;1.57;;;25.30;53.40;;;;;;5090484;28;20755;-72
2023/07/01 11:00:38;;;;;;;2.40;1.97;;;25.50;54.60;;;;;;5089123;28;21209;-72
2023/07/01 11:03:31;;;;;;;1.60;1.50;;;25.80;52.10;;;;;;5088789;28;20635;-72
2023/07/01 11:05:59;;;;;;;2.77;1.80;;;25.30;50.80;;;;;;5086995;28;21058;-72
2023/07/01 11:08:26;;;;;;;1.80;1.67;;;25.10;52.40;;;;;;5089103;28;20636;-72
2023/07/01 11:10:53;;;;;;;1.57;1.37;;;25.20;52.30;;;;;;5089000;28;21236;-72
2023/07/01 11:13:23;;;;;;;1.50;1.40;;;25.20;51.80;;;;;;5088503;28;20620;-72
2023/07/01 11:16:01;;;;;;;2.43;2.23;;;25.10;52.60;;;;;;5090126;28;20674;-72
2023/07/01 11:18:41;;;;;;;0.93;0.90;;;25.00;52.90;;;;;;5089782;28;20625;-72
2023/07/01 11:21:11;;;;;;;1.73;1.63;;;25.00;53.90;;;;;;5089324;28;20648;-72
2023/07/01 11:23:37;;;;;;;1.93;1.73;;;25.20;53.40;;;;;;5090256;28;20644;-72
2023/07/01 11:26:04;;;;;;;1.93;1.77;;;25.30;52.70;;;;;;5082742;28;20663;-72
2023/07/01 11:28:34;;;;;;;1.43;1.27;;;24.80;54.10;;;;;;5088869;28;20664;-72
2023/07/01 11:31:14;;;;;;;2.10;1.90;;;24.90;54.60;;;;;;5088851;28;20701;-72
2023/07/01 11:33:45;;;;;;;2.70;1.80;;;24.60;53.40;;;;;;5090236;28;20723;-72
2023/07/01 11:36:14;;;;;;;1.77;1.67;;;24.70;54.30;;;;;;5089190;28;20648;-72
2023/07/01 11:38:43;;;;;;;1.00;1.00;;;24.80;54.10;;;;;;5091211;28;20626;-72
2023/07/01 11:41:14;;;;;;;1.70;1.50;;;24.80;53.60;;;;;;5092554;28;21020;-72
2023/07/01 11:43:41;;;;;;;2.20;2.00;;;25.00;53.00;;;;;;5087940;28;20662;-72
2023/07/01 11:46:08;;;;;;;2.30;1.87;;;25.00;53.90;;;;;;5087838;28;21020;-72
2023/07/01 11:48:35;;;;;;;3.23;2.00;;;24.80;53.90;;;;;;5089076;28;20650;-72
2023/07/01 11:51:03;;;;;;;2.70;1.70;;;24.60;53.70;;;;;;5088403;28;20663;-72
2023/07/01 11:53:30;;;;;;;2.60;1.40;;;24.60;55.50;;;;;;5087609;28;20614;-72
2023/07/01 11:55:58;;;;;;;2.10;1.47;;;24.50;54.30;;;;;;5092502;28;20658;-72
2023/07/01 11:58:29;;;;;;;1.70;1.60;;;24.50;54.70;;;;;;5094719;28;20621;-72
2023/07/01 12:00:57;;;;;;;2.47;1.83;;;24.50;55.40;;;;;;5091791;28;20736;-72
2023/07/01 12:03:23;;;;;;;1.70;1.60;;;24.60;55.40;;;;;;5092229;28;20621;-72
2023/07/01 12:05:51;;;;;;;1.43;1.33;;;24.20;55.70;;;;;;5091294;28;20804;-72
2023/07/01 12:08:19;;;;;;;1.30;1.17;;;24.00;55.50;;;;;;5091879;28;20618;-72
2023/07/01 12:10:46;;;;;;;1.33;1.00;;;23.80;56.00;;;;;;5095189;28;20647;-72
2023/07/01 12:13:32;;;;;;;1.47;1.30;;;23.70;55.90;;;;;;5093237;28;21003;-72
2023/07/01 12:16:00;;;;;;;1.60;1.23;;;23.60;57.30;;;;;;5092274;28;20649;-72
2023/07/01 12:18:29;;;;;;;2.10;1.57;;;23.30;57.40;;;;;;5095004;28;20618;-72
2023/07/01 12:20:56;;;;;;;1.80;1.37;;;23.10;57.00;;;;;;5098680;28;21025;-72
2023/07/01 12:23:24;;;;;;;2.33;1.23;;;23.00;57.40;;;;;;5093607;28;21043;-72
2023/07/01 12:25:51;;;;;;;1.20;1.13;;;22.80;57.50;;;;;;5091671;28;20654;-72
2023/07/01 12:28:20;;;;;;;2.13;1.47;;;22.70;58.50;;;;;;5093558;28;20624;-72
2023/07/01 12:30:47;;;;;;;1.23;1.13;;;22.60;58.10;;;;;;5094784;28;20833;-72
2023/07/01 12:33:14;;;;;;;1.53;1.33;;;22.60;58.70;;;;;;5092651;28;20657;-72
2023/07/01 12:35:41;;;;;;;1.33;1.20;;;22.80;59.10;;;;;;5091251;28;21267;-72
2023/07/01 12:38:11;;;;;;;1.40;1.30;;;22.70;58.70;;;;;;5092407;28;20619;-72
2023/07/01 12:40:40;;;;;;;1.50;1.30;;;22.90;59.90;;;;;;5088824;28;20661;-72
2023/07/01 12:43:07;;;;;;;1.30;1.20;;;22.80;59.00;;;;;;5094508;28;20623;-71
2023/07/01 12:45:34;;;;;;;0.97;0.97;;;22.70;59.20;;;;;;5089315;28;20642;-72
2023/07/01 12:48:01;;;;;;;1.37;1.27;;;22.70;58.50;;;;;;5091328;28;20636;-72
2023/07/01 12:50:28;;;;;;;0.50;0.50;;;22.80;59.00;;;;;;5092136;28;20743;-72
2023/07/01 12:52:54;;;;;;;0.97;0.93;;;22.70;58.50;;;;;;5091709;28;20629;-72
2023/07/01 12:55:21;;;;;;;0.83;0.83;;;22.80;59.20;;;;;;5091475;28;20957;-71
2023/07/01 12:57:49;;;;;;;1.30;0.90;;;22.60;59.80;;;;;;5092039;28;20608;-72